Terminal Aerodrome Forecast
Issued by NWS

Current Version | Previous Version | Text Only | Print | Product List | Glossary Off
Versions: 1 2 3 4 5 6 7 8 9 10 11 12 13 14 15 16 17 18 19 20 21 22 23 24 25 26

000
FTUS41 KILN 212300
TAFLUK
TAF
KLUK 212330Z 2200/2224 35005KT P6SM OVC050
     FM220700 35003KT P6SM BKN028
      TEMPO 2207/2211 SCT028
     FM221500 36006KT P6SM SCT040=

USA.gov is the U.S. government's official web portal to all federal, state and local government web resources and services.